Time;durP1;ratioP1;P1;durP2;ratioP2;P2;SDS_P1;SDS_P2;PMS_P1;PMS_P2;Temp;Humidity;BMP_temperature;BMP_pressure;BME280_temperature;BME280_humidity;BME280_pressure;Samples;Min_cycle;Max_cycle;Signal;HPM_P1;HPM_P2
2022/09/01 00:01:50;;;;;;;4.67;2.27;;;;;;;;;;4995853;28;20183;-69
2022/09/01 00:04:19;;;;;;;4.30;2.40;;;;;;;;;;4978409;28;20177;-69
2022/09/01 00:06:45;;;;;;;4.67;2.13;;;;;;;;;;4995714;28;20204;-70
2022/09/01 00:09:13;;;;;;;4.27;2.43;;;;;;;;;;4996079;28;20499;-69
2022/09/01 00:11:40;;;;;;;4.40;2.40;;;;;;;;;;4996006;28;20187;-69
2022/09/01 00:14:06;;;;;;;5.50;2.30;;;;;;;;;;4978195;28;20633;-69
2022/09/01 00:16:32;;;;;;;6.77;1.93;;;;;;;;;;4995730;28;20200;-69
2022/09/01 00:18:58;;;;;;;4.33;2.20;;;;;;;;;;4995606;28;20182;-69
2022/09/01 00:21:32;;;;;;;2.67;1.80;;;;;;;;;;4995687;28;20208;-69
2022/09/01 00:23:59;;;;;;;2.77;2.07;;;;;;;;;;4995772;28;20172;-69
2022/09/01 00:26:24;;;;;;;2.93;1.90;;;;;;;;;;4995403;28;20670;-69
2022/09/01 00:28:50;;;;;;;5.43;3.00;;;;;;;;;;4994577;28;20211;-69
2022/09/01 00:31:18;;;;;;;5.37;2.80;;;;;;;;;;4995851;28;20227;-69
2022/09/01 00:33:44;;;;;;;4.60;2.40;;;;;;;;;;4995835;28;20250;-69
2022/09/01 00:36:10;;;;;;;8.47;2.73;;;;;;;;;;4995097;28;20270;-69
2022/09/01 00:38:37;;;;;;;6.80;2.70;;;;;;;;;;4977784;28;20203;-67
2022/09/01 00:41:03;;;;;;;3.57;2.40;;;;;;;;;;4977708;28;20191;-69
2022/09/01 00:43:43;;;;;;;6.10;2.00;;;;;;;;;;4995018;28;20191;-69
2022/09/01 00:46:11;;;;;;;4.70;2.20;;;;;;;;;;4995145;28;20196;-69
2022/09/01 00:48:38;;;;;;;3.63;2.27;;;;;;;;;;4977589;28;20630;-68
2022/09/01 00:51:05;;;;;;;4.07;2.40;;;;;;;;;;4995209;28;20196;-69
2022/09/01 00:53:31;;;;;;;3.87;2.23;;;;;;;;;;4994904;28;20189;-69
2022/09/01 00:55:57;;;;;;;7.50;2.13;;;;;;;;;;4977317;28;20608;-69
2022/09/01 00:58:23;;;;;;;4.67;2.23;;;;;;;;;;4994789;28;20177;-69
2022/09/01 01:00:50;;;;;;;7.30;2.17;;;;;;;;;;4977471;28;20192;-70
2022/09/01 01:03:16;;;;;;;5.30;2.30;;;;;;;;;;4977288;28;20661;-70
2022/09/01 01:05:47;;;;;;;3.97;2.30;;;;;;;;;;4994748;28;20208;-70
2022/09/01 01:08:18;;;;;;;3.93;2.27;;;;;;;;;;4994934;28;20192;-70
2022/09/01 01:10:44;;;;;;;4.83;2.30;;;;;;;;;;4995077;28;20161;-67
2022/09/01 01:13:16;;;;;;;3.53;2.00;;;;;;;;;;4994542;28;20528;-70
2022/09/01 01:15:43;;;;;;;5.07;2.10;;;;;;;;;;4994451;28;20854;-71
2022/09/01 01:18:10;;;;;;;3.63;2.47;;;;;;;;;;4994541;28;20267;-70
2022/09/01 01:23:25;;;;;;;5.03;2.03;;;;;;;;;;4994825;28;20172;-70
2022/09/01 01:25:52;;;;;;;4.03;2.30;;;;;;;;;;4976817;28;20676;-70
2022/09/01 01:28:20;;;;;;;3.67;2.50;;;;;;;;;;4994339;28;20208;-70
2022/09/01 01:30:52;;;;;;;3.43;2.13;;;;;;;;;;4976861;28;20231;-70
2022/09/01 01:33:22;;;;;;;6.97;2.20;;;;;;;;;;4976855;28;20605;-69
2022/09/01 01:35:50;;;;;;;7.77;2.13;;;;;;;;;;4994300;28;20216;-70
2022/09/01 01:38:16;;;;;;;4.63;2.13;;;;;;;;;;4994284;28;20227;-70
2022/09/01 01:40:42;;;;;;;2.50;1.97;;;;;;;;;;4994725;28;20202;-70
2022/09/01 01:43:10;;;;;;;5.17;2.20;;;;;;;;;;4994079;28;20223;-70
2022/09/01 01:45:36;;;;;;;2.23;1.80;;;;;;;;;;4994304;28;20201;-70
2022/09/01 01:48:07;;;;;;;4.53;2.30;;;;;;;;;;4976395;28;20201;-70
2022/09/01 01:50:34;;;;;;;4.93;1.90;;;;;;;;;;4994048;28;20160;-70
2022/09/01 01:53:01;;;;;;;6.23;2.17;;;;;;;;;;4994020;28;20173;-70
2022/09/01 01:55:29;;;;;;;3.00;1.90;;;;;;;;;;4976487;28;20677;-70
2022/09/01 01:57:55;;;;;;;2.97;1.87;;;;;;;;;;4993853;28;20180;-70
2022/09/01 02:00:23;;;;;;;2.23;2.00;;;;;;;;;;4976422;28;20185;-70
2022/09/01 02:02:53;;;;;;;4.80;2.23;;;;;;;;;;4976548;28;20216;-70
2022/09/01 02:05:21;;;;;;;5.93;2.17;;;;;;;;;;4976324;28;20204;-70
2022/09/01 02:07:49;;;;;;;4.53;2.17;;;;;;;;;;4976402;28;20219;-70
2022/09/01 02:10:15;;;;;;;3.43;1.93;;;;;;;;;;4993835;28;20254;-70
2022/09/01 02:12:42;;;;;;;2.63;1.87;;;;;;;;;;4993882;28;20177;-70
2022/09/01 02:15:08;;;;;;;2.13;1.80;;;;;;;;;;4994049;28;20196;-70
2022/09/01 02:17:34;;;;;;;5.03;2.20;;;;;;;;;;4976261;28;20184;-70
2022/09/01 02:19:59;;;;;;;3.17;1.93;;;;;;;;;;4993814;28;20180;-70
2022/09/01 02:22:27;;;;;;;4.33;2.20;;;;;;;;;;4994287;28;20184;-70
2022/09/01 02:24:54;;;;;;;5.43;2.47;;;;;;;;;;4993689;28;20181;-70
2022/09/01 02:27:24;;;;;;;7.40;2.33;;;;;;;;;;4993741;28;20196;-70
2022/09/01 02:29:50;;;;;;;2.27;2.07;;;;;;;;;;4994870;28;20177;-70
2022/09/01 02:32:18;;;;;;;3.03;2.10;;;;;;;;;;4993603;28;20173;-70
2022/09/01 02:34:44;;;;;;;4.40;2.30;;;;;;;;;;4993646;28;20173;-70
2022/09/01 02:37:10;;;;;;;3.90;1.90;;;;;;;;;;4993550;28;20184;-70
2022/09/01 02:39:36;;;;;;;4.57;2.40;;;;;;;;;;4976159;28;20671;-70
2022/09/01 02:42:02;;;;;;;5.93;2.60;;;;;;;;;;4993557;28;20649;-70
2022/09/01 02:44:29;;;;;;;6.17;2.80;;;;;;;;;;4976075;28;20204;-70
2022/09/01 02:46:56;;;;;;;4.97;2.50;;;;;;;;;;4993711;28;20287;-70
2022/09/01 02:49:24;;;;;;;6.27;2.10;;;;;;;;;;4993631;28;20231;-70
2022/09/01 02:51:52;;;;;;;7.83;1.87;;;;;;;;;;4996609;28;20547;-70
2022/09/01 02:54:21;;;;;;;2.83;2.10;;;;;;;;;;4997240;28;20172;-70
2022/09/01 02:56:48;;;;;;;3.40;2.27;;;;;;;;;;4997198;28;20196;-70
2022/09/01 02:59:20;;;;;;;4.53;2.47;;;;;;;;;;4997454;28;20187;-70
2022/09/01 03:01:46;;;;;;;5.97;2.50;;;;;;;;;;4997113;28;20200;-70
2022/09/01 03:04:13;;;;;;;3.57;2.37;;;;;;;;;;4997568;28;20242;-71
2022/09/01 03:06:39;;;;;;;3.93;2.20;;;;;;;;;;4996837;28;20207;-70
2022/09/01 03:09:07;;;;;;;6.00;2.70;;;;;;;;;;4997135;28;20232;-70
2022/09/01 03:11:34;;;;;;;6.67;2.30;;;;;;;;;;4996863;28;20227;-71
2022/09/01 03:14:00;;;;;;;3.30;2.60;;;;;;;;;;4997242;28;20188;-71
2022/09/01 03:16:29;;;;;;;4.93;2.40;;;;;;;;;;4979430;28;20209;-70
2022/09/01 03:18:55;;;;;;;3.67;2.20;;;;;;;;;;4997201;28;20177;-71
2022/09/01 03:21:22;;;;;;;4.90;2.10;;;;;;;;;;4979640;28;20186;-70
2022/09/01 03:23:49;;;;;;;4.97;2.47;;;;;;;;;;4979467;28;20537;-72
2022/09/01 03:26:17;;;;;;;3.27;2.10;;;;;;;;;;4996788;28;20208;-70
2022/09/01 03:28:43;;;;;;;5.90;2.17;;;;;;;;;;4979054;28;20250;-70
2022/09/01 03:31:09;;;;;;;5.43;2.40;;;;;;;;;;4979278;28;20703;-70
2022/09/01 03:33:35;;;;;;;5.03;2.47;;;;;;;;;;4997078;28;20254;-72
2022/09/01 03:36:01;;;;;;;5.87;2.40;;;;;;;;;;4997412;28;20220;-71
2022/09/01 03:38:27;;;;;;;4.57;2.50;;;;;;;;;;4997133;28;20637;-70
2022/09/01 03:41:00;;;;;;;6.23;2.30;;;;;;;;;;4997008;28;20267;-69
2022/09/01 03:43:27;;;;;;;5.50;2.10;;;;;;;;;;4997132;28;20180;-69
2022/09/01 03:45:54;;;;;;;4.33;2.63;;;;;;;;;;4979236;28;20247;-69
2022/09/01 03:48:21;;;;;;;2.93;2.30;;;;;;;;;;4979070;28;20255;-68
2022/09/01 03:50:48;;;;;;;5.97;2.40;;;;;;;;;;4979209;28;20267;-69
2022/09/01 03:53:16;;;;;;;2.80;2.20;;;;;;;;;;4996749;28;20183;-71
2022/09/01 03:55:44;;;;;;;7.03;2.97;;;;;;;;;;4996825;28;20552;-69
2022/09/01 03:58:11;;;;;;;5.13;2.23;;;;;;;;;;4996515;28;20189;-68
2022/09/01 04:00:44;;;;;;;5.43;2.47;;;;;;;;;;4978590;28;20649;-69
2022/09/01 04:03:11;;;;;;;7.07;2.17;;;;;;;;;;4978769;28;20188;-69
2022/09/01 04:05:39;;;;;;;4.30;2.17;;;;;;;;;;4996110;28;20711;-69
2022/09/01 04:08:06;;;;;;;4.13;2.60;;;;;;;;;;4995692;28;20204;-69
2022/09/01 04:10:33;;;;;;;9.60;2.73;;;;;;;;;;4995762;28;20246;-69
2022/09/01 04:12:59;;;;;;;3.43;2.30;;;;;;;;;;4978271;28;20192;-69
2022/09/01 04:15:26;;;;;;;7.63;2.70;;;;;;;;;;4977983;28;20681;-70
2022/09/01 04:18:18;;;;;;;5.67;2.33;;;;;;;;;;4978133;28;20189;-70
2022/09/01 04:20:48;;;;;;;4.90;2.20;;;;;;;;;;4978917;28;20187;-70
2022/09/01 04:23:32;;;;;;;5.80;2.80;;;;;;;;;;4995912;28;20263;-70
2022/09/01 04:26:09;;;;;;;4.37;2.50;;;;;;;;;;4995895;28;20618;-70
2022/09/01 04:28:39;;;;;;;3.80;2.47;;;;;;;;;;4995874;28;20255;-70
2022/09/01 04:31:08;;;;;;;5.37;2.47;;;;;;;;;;4995461;28;20649;-70
2022/09/01 04:33:38;;;;;;;7.00;2.80;;;;;;;;;;4978038;28;20176;-70
2022/09/01 04:36:06;;;;;;;2.67;2.00;;;;;;;;;;4995268;28;20635;-69
2022/09/01 04:38:35;;;;;;;5.27;2.20;;;;;;;;;;4995347;28;20236;-70
2022/09/01 04:41:05;;;;;;;3.20;2.67;;;;;;;;;;4977890;28;20189;-70
2022/09/01 04:43:31;;;;;;;3.00;2.03;;;;;;;;;;4995456;28;20243;-70
2022/09/01 04:45:58;;;;;;;4.17;2.40;;;;;;;;;;4995616;28;20200;-68
2022/09/01 04:48:25;;;;;;;8.50;2.27;;;;;;;;;;4995530;28;20570;-70
2022/09/01 04:50:52;;;;;;;4.83;2.73;;;;;;;;;;4995512;28;20183;-69
2022/09/01 04:53:18;;;;;;;4.83;2.50;;;;;;;;;;4977685;28;20180;-70
2022/09/01 04:55:45;;;;;;;4.37;2.50;;;;;;;;;;4995247;28;20197;-70
2022/09/01 04:58:12;;;;;;;5.90;2.70;;;;;;;;;;4977689;28;20567;-69
2022/09/01 05:00:39;;;;;;;7.57;2.63;;;;;;;;;;4977835;28;20724;-69
2022/09/01 05:03:05;;;;;;;8.27;2.80;;;;;;;;;;4995316;28;20219;-69
2022/09/01 05:05:42;;;;;;;3.73;2.30;;;;;;;;;;4977651;28;20746;-69
2022/09/01 05:08:12;;;;;;;4.53;2.47;;;;;;;;;;4977485;28;20300;-70
2022/09/01 05:10:40;;;;;;;4.67;2.47;;;;;;;;;;4977570;28;20184;-70
2022/09/01 05:13:08;;;;;;;5.50;2.90;;;;;;;;;;4977170;28;20176;-69
2022/09/01 05:15:34;;;;;;;4.63;2.87;;;;;;;;;;4994908;28;20200;-69
2022/09/01 05:18:01;;;;;;;10.17;2.30;;;;;;;;;;4995359;28;20319;-70
2022/09/01 05:20:28;;;;;;;10.77;2.80;;;;;;;;;;4994763;28;20184;-70
2022/09/01 05:22:55;;;;;;;3.53;2.47;;;;;;;;;;4994706;28;20183;-70
2022/09/01 05:25:22;;;;;;;8.90;2.63;;;;;;;;;;4994635;28;20196;-70
2022/09/01 05:27:51;;;;;;;3.43;2.70;;;;;;;;;;4977068;28;20201;-70
2022/09/01 05:30:17;;;;;;;8.77;2.50;;;;;;;;;;4977077;28;20664;-69
2022/09/01 05:32:47;;;;;;;5.50;2.30;;;;;;;;;;4994666;28;20180;-69
2022/09/01 05:35:14;;;;;;;8.77;2.60;;;;;;;;;;4994323;28;20214;-69
2022/09/01 05:37:42;;;;;;;2.97;2.13;;;;;;;;;;4994831;28;20177;-69
2022/09/01 05:40:14;;;;;;;10.23;2.77;;;;;;;;;;4976939;28;20185;-69
2022/09/01 05:42:41;;;;;;;3.47;2.43;;;;;;;;;;4977118;28;20605;-69
2022/09/01 05:45:09;;;;;;;2.47;2.20;;;;;;;;;;4994387;28;20204;-69
2022/09/01 05:47:36;;;;;;;4.00;2.10;;;;;;;;;;4994270;28;20258;-69
2022/09/01 05:50:04;;;;;;;7.23;2.40;;;;;;;;;;4994329;28;20181;-69
2022/09/01 05:52:33;;;;;;;7.53;2.30;;;;;;;;;;4976813;28;20188;-69
2022/09/01 05:54:59;;;;;;;5.63;2.40;;;;;;;;;;4994135;28;20180;-68
2022/09/01 05:57:25;;;;;;;4.93;2.33;;;;;;;;;;4994348;28;20185;-69
2022/09/01 05:59:54;;;;;;;5.73;2.60;;;;;;;;;;4977596;28;20540;-69
2022/09/01 06:02:21;;;;;;;11.87;3.00;;;;;;;;;;4994328;28;20250;-69
2022/09/01 06:04:48;;;;;;;5.00;2.40;;;;;;;;;;4994399;28;20223;-67
2022/09/01 06:07:16;;;;;;;6.93;2.77;;;;;;;;;;4993972;28;20267;-69
2022/09/01 06:09:43;;;;;;;6.87;2.93;;;;;;;;;;4994148;28;20172;-69
2022/09/01 06:12:16;;;;;;;8.87;3.10;;;;;;;;;;4994122;28;20172;-69
2022/09/01 06:14:43;;;;;;;6.37;2.60;;;;;;;;;;4977683;28;20559;-70
2022/09/01 06:17:10;;;;;;;7.83;2.90;;;;;;;;;;4994437;28;20201;-69
2022/09/01 06:19:36;;;;;;;6.53;2.30;;;;;;;;;;4994861;28;20208;-69
2022/09/01 06:22:02;;;;;;;5.90;2.53;;;;;;;;;;4994621;28;20630;-68
2022/09/01 06:24:28;;;;;;;4.37;2.57;;;;;;;;;;4976881;28;20184;-69
2022/09/01 06:26:54;;;;;;;10.77;2.80;;;;;;;;;;4996730;28;20200;-69
2022/09/01 06:29:20;;;;;;;4.07;2.30;;;;;;;;;;4980406;28;20287;-69
2022/09/01 06:31:50;;;;;;;7.00;2.73;;;;;;;;;;4999212;28;20624;-71
2022/09/01 06:34:16;;;;;;;6.93;2.50;;;;;;;;;;4981093;28;20264;-69
2022/09/01 06:36:43;;;;;;;8.53;2.57;;;;;;;;;;4998676;28;20212;-70
2022/09/01 06:39:18;;;;;;;7.70;2.33;;;;;;;;;;4998252;28;20642;-71
2022/09/01 06:41:44;;;;;;;8.53;3.03;;;;;;;;;;4997993;28;20536;-69
2022/09/01 06:44:10;;;;;;;5.40;2.17;;;;;;;;;;4980350;28;20212;-69
2022/09/01 06:46:36;;;;;;;6.80;2.10;;;;;;;;;;4980270;28;20239;-69
2022/09/01 06:49:02;;;;;;;6.57;2.40;;;;;;;;;;4980916;28;20204;-69
2022/09/01 06:51:29;;;;;;;10.67;2.87;;;;;;;;;;4997555;28;20180;-69
2022/09/01 06:53:55;;;;;;;11.60;3.10;;;;;;;;;;5024795;23;20203;-68
2022/09/01 06:56:30;;;;;;;5.70;2.20;;;;;;;;;;5017311;28;20594;-69
2022/09/01 06:58:56;;;;;;;5.10;2.20;;;;;;;;;;5017281;28;20178;-69
2022/09/01 07:01:23;;;;;;;3.03;1.93;;;;;;;;;;5015833;28;20565;-69
2022/09/01 07:03:50;;;;;;;7.30;2.40;;;;;;;;;;5016954;28;20183;-66
2022/09/01 07:06:17;;;;;;;5.80;2.00;;;;;;;;;;5015377;28;20211;-68
2022/09/01 07:08:48;;;;;;;3.60;2.03;;;;;;;;;;5017011;28;20253;-67
2022/09/01 07:11:22;;;;;;;3.00;2.23;;;;;;;;;;5017191;28;20222;-68
2022/09/01 07:13:49;;;;;;;4.80;1.90;;;;;;;;;;5015482;28;20199;-67
2022/09/01 07:16:20;;;;;;;5.93;2.80;;;;;;;;;;5016892;28;20179;-68
2022/09/01 07:18:47;;;;;;;5.83;2.43;;;;;;;;;;5015743;28;20180;-67
2022/09/01 07:21:13;;;;;;;6.90;2.40;;;;;;;;;;5016717;28;20222;-67
2022/09/01 07:23:39;;;;;;;3.53;2.20;;;;;;;;;;5016414;28;20183;-67
2022/09/01 07:26:05;;;;;;;8.40;2.30;;;;;;;;;;5016624;28;20184;-69
2022/09/01 07:28:32;;;;;;;5.67;2.23;;;;;;;;;;5016824;28;20290;-69
2022/09/01 07:30:58;;;;;;;4.17;2.00;;;;;;;;;;5014856;28;20184;-69
2022/09/01 07:33:24;;;;;;;8.30;2.57;;;;;;;;;;5014966;28;20275;-69
2022/09/01 07:35:54;;;;;;;3.30;2.47;;;;;;;;;;5016086;28;20196;-69
2022/09/01 07:38:20;;;;;;;3.83;2.10;;;;;;;;;;5014450;28;20195;-68
2022/09/01 07:40:46;;;;;;;5.73;1.90;;;;;;;;;;5015839;28;20180;-68
2022/09/01 07:43:21;;;;;;;3.57;2.00;;;;;;;;;;5014768;28;20664;-69
2022/09/01 07:45:47;;;;;;;8.00;2.67;;;;;;;;;;5016068;28;20202;-68
2022/09/01 07:48:19;;;;;;;6.63;2.10;;;;;;;;;;5014303;28;20622;-68
2022/09/01 07:50:46;;;;;;;6.90;2.00;;;;;;;;;;5014744;28;20168;-68
2022/09/01 07:53:18;;;;;;;5.47;2.00;;;;;;;;;;5014610;28;20274;-68
2022/09/01 07:55:45;;;;;;;3.97;1.90;;;;;;;;;;5016118;28;20263;-68
2022/09/01 07:58:12;;;;;;;5.07;2.10;;;;;;;;;;5015792;28;20182;-68
2022/09/01 08:00:48;;;;;;;3.80;2.20;;;;;;;;;;5014507;28;20599;-68
2022/09/01 08:03:15;;;;;;;6.00;1.73;;;;;;;;;;5015968;28;20166;-68
2022/09/01 08:05:42;;;;;;;8.50;1.90;;;;;;;;;;5015724;28;20734;-68
2022/09/01 08:08:08;;;;;;;6.40;2.43;;;;;;;;;;5014033;28;20353;-68
2022/09/01 08:10:34;;;;;;;7.33;1.77;;;;;;;;;;5015494;28;20208;-68
2022/09/01 08:13:00;;;;;;;4.97;1.90;;;;;;;;;;5015552;28;20200;-68
2022/09/01 08:15:26;;;;;;;7.60;2.37;;;;;;;;;;5015583;28;20611;-68
2022/09/01 08:17:52;;;;;;;3.40;1.73;;;;;;;;;;5015240;28;20275;-68
2022/09/01 08:20:18;;;;;;;3.03;1.67;;;;;;;;;;5015123;28;20231;-68
2022/09/01 08:22:44;;;;;;;3.70;1.83;;;;;;;;;;5015286;28;20234;-68
2022/09/01 08:25:10;;;;;;;3.20;1.80;;;;;;;;;;5015481;28;20204;-68
2022/09/01 08:27:37;;;;;;;6.47;2.00;;;;;;;;;;5013708;28;20208;-68
2022/09/01 08:30:05;;;;;;;2.90;1.80;;;;;;;;;;5014932;28;20176;-68
2022/09/01 08:32:31;;;;;;;4.67;1.67;;;;;;;;;;5014941;28;20645;-68
2022/09/01 08:34:57;;;;;;;3.70;1.80;;;;;;;;;;5014892;28;20200;-69
2022/09/01 08:37:24;;;;;;;5.60;1.60;;;;;;;;;;5014829;28;20186;-68
2022/09/01 08:39:51;;;;;;;3.47;1.83;;;;;;;;;;5015301;28;20674;-68
2022/09/01 08:42:35;;;;;;;3.40;1.60;;;;;;;;;;5014768;28;20176;-68
2022/09/01 08:45:13;;;;;;;2.80;1.63;;;;;;;;;;5013445;28;20222;-69
2022/09/01 08:47:39;;;;;;;5.03;1.90;;;;;;;;;;5013111;28;20211;-68
2022/09/01 08:50:06;;;;;;;3.47;1.97;;;;;;;;;;5014013;28;20191;-68
2022/09/01 08:52:50;;;;;;;1.83;1.40;;;;;;;;;;5013344;28;20208;-69
2022/09/01 08:55:26;;;;;;;2.40;1.77;;;;;;;;;;5014635;28;20219;-68
2022/09/01 08:57:54;;;;;;;5.67;1.67;;;;;;;;;;5013476;28;20179;-68
2022/09/01 09:00:23;;;;;;;4.53;1.70;;;;;;;;;;5014816;28;20175;-69
2022/09/01 09:03:04;;;;;;;3.60;1.93;;;;;;;;;;5014810;28;20262;-68
2022/09/01 09:05:43;;;;;;;5.40;1.60;;;;;;;;;;5014966;28;20199;-68
2022/09/01 09:08:14;;;;;;;5.77;1.70;;;;;;;;;;5014979;28;20213;-68
2022/09/01 09:10:46;;;;;;;3.27;1.57;;;;;;;;;;5013753;28;20640;-69
2022/09/01 09:13:35;;;;;;;5.07;1.60;;;;;;;;;;5015483;28;20214;-68
2022/09/01 09:16:30;;;;;;;1.50;1.40;;;;;;;;;;5015174;28;20203;-68
2022/09/01 09:19:07;;;;;;;3.87;1.50;;;;;;;;;;5000523;28;20199;-68
2022/09/01 09:21:35;;;;;;;2.63;1.53;;;;;;;;;;5014519;28;20220;-68
2022/09/01 09:24:07;;;;;;;2.37;1.40;;;;;;;;;;5014463;28;20250;-68
2022/09/01 09:26:33;;;;;;;1.50;1.40;;;;;;;;;;5014213;28;20648;-68
2022/09/01 09:29:00;;;;;;;2.63;1.70;;;;;;;;;;5014270;28;20203;-67
2022/09/01 09:31:37;;;;;;;4.33;1.67;;;;;;;;;;5014093;28;20202;-67
2022/09/01 09:34:04;;;;;;;2.63;1.40;;;;;;;;;;5014201;28;20199;-68
2022/09/01 09:36:34;;;;;;;1.10;1.10;;;;;;;;;;5013989;28;20180;-68
2022/09/01 09:39:05;;;;;;;3.30;1.60;;;;;;;;;;5012446;28;20184;-67
2022/09/01 09:41:31;;;;;;;3.07;1.30;;;;;;;;;;5012511;28;20271;-68
2022/09/01 09:44:03;;;;;;;1.50;1.40;;;;;;;;;;5013654;28;20687;-68
2022/09/01 09:46:41;;;;;;;3.03;1.20;;;;;;;;;;5013563;28;20327;-68
2022/09/01 09:49:19;;;;;;;5.13;1.50;;;;;;;;;;5012289;28;20689;-68
2022/09/01 09:51:47;;;;;;;1.57;1.47;;;;;;;;;;5013564;28;20180;-68
2022/09/01 09:54:13;;;;;;;1.40;1.30;;;;;;;;;;5013454;28;20226;-68
2022/09/01 09:56:46;;;;;;;1.77;1.23;;;;;;;;;;5013579;28;20644;-68
2022/09/01 09:59:23;;;;;;;4.53;1.60;;;;;;;;;;5012165;28;20179;-68
2022/09/01 10:01:50;;;;;;;3.50;1.50;;;;;;;;;;5013735;28;20179;-68
2022/09/01 10:04:31;;;;;;;5.17;1.40;;;;;;;;;;5013852;28;20195;-67
2022/09/01 10:06:57;;;;;;;3.13;1.33;;;;;;;;;;5013540;28;20176;-68
2022/09/01 10:09:23;;;;;;;2.17;1.53;;;;;;;;;;5013330;28;20213;-68
2022/09/01 10:11:51;;;;;;;3.73;1.40;;;;;;;;;;5013749;28;20644;-67
2022/09/01 10:14:22;;;;;;;4.37;2.33;;;;;;;;;;5013661;28;20227;-68
2022/09/01 10:16:52;;;;;;;2.03;1.60;;;;;;;;;;5014181;28;20171;-68
2022/09/01 10:19:18;;;;;;;3.73;1.50;;;;;;;;;;5013132;28;20565;-66
2022/09/01 10:21:45;;;;;;;1.90;1.30;;;;;;;;;;5013763;28;20203;-68
2022/09/01 10:24:25;;;;;;;1.67;1.40;;;;;;;;;;5012232;28;20744;-68
2022/09/01 10:26:54;;;;;;;2.27;1.67;;;;;;;;;;5013333;28;20172;-67
2022/09/01 10:29:34;;;;;;;3.00;1.53;;;;;;;;;;5013397;28;20218;-68
2022/09/01 10:32:01;;;;;;;3.27;1.80;;;;;;;;;;5013488;28;20164;-68
2022/09/01 10:34:29;;;;;;;6.80;1.90;;;;;;;;;;5013506;28;20286;-67
2022/09/01 10:36:57;;;;;;;2.67;1.47;;;;;;;;;;5013200;28;20728;-68
2022/09/01 10:39:23;;;;;;;1.97;1.47;;;;;;;;;;5013144;28;20270;-67
2022/09/01 10:41:55;;;;;;;1.60;1.47;;;;;;;;;;5013156;28;20245;-68
2022/09/01 10:44:29;;;;;;;3.10;1.50;;;;;;;;;;5013037;28;20249;-68
2022/09/01 10:46:55;;;;;;;2.03;1.53;;;;;;;;;;5013428;28;20171;-68
2022/09/01 10:49:27;;;;;;;1.60;1.50;;;;;;;;;;5011746;28;20215;-68
2022/09/01 10:51:54;;;;;;;2.10;1.70;;;;;;;;;;5013109;28;20302;-68
2022/09/01 10:54:39;;;;;;;1.80;1.60;;;;;;;;;;5011596;28;20744;-68
2022/09/01 10:57:20;;;;;;;1.97;1.57;;;;;;;;;;5013011;28;20176;-67
2022/09/01 10:59:46;;;;;;;6.20;1.70;;;;;;;;;;5011699;28;20200;-68
2022/09/01 11:02:17;;;;;;;1.87;1.60;;;;;;;;;;5012886;28;20605;-68
2022/09/01 11:04:46;;;;;;;1.60;1.50;;;;;;;;;;5012963;28;20192;-68
2022/09/01 11:07:18;;;;;;;2.70;1.50;;;;;;;;;;5012823;28;20179;-68
2022/09/01 11:09:49;;;;;;;3.87;1.57;;;;;;;;;;5012801;28;20180;-68
2022/09/01 11:12:24;;;;;;;6.90;1.70;;;;;;;;;;5014520;28;20293;-67
2022/09/01 11:14:53;;;;;;;2.90;1.70;;;;;;;;;;5016481;28;20191;-67
2022/09/01 11:17:21;;;;;;;3.40;1.83;;;;;;;;;;5016738;28;20667;-67
2022/09/01 11:19:57;;;;;;;3.87;2.00;;;;;;;;;;5015705;28;20657;-68
2022/09/01 11:22:26;;;;;;;3.80;1.80;;;;;;;;;;5016303;28;20255;-67
2022/09/01 11:24:52;;;;;;;3.43;1.70;;;;;;;;;;5016317;28;20322;-68
2022/09/01 11:27:38;;;;;;;6.60;2.13;;;;;;;;;;5016306;28;20203;-68
2022/09/01 11:30:08;;;;;;;3.07;1.53;;;;;;;;;;5014908;28;20187;-68
2022/09/01 11:32:36;;;;;;;3.63;1.90;;;;;;;;;;5015917;28;20175;-68
2022/09/01 11:35:04;;;;;;;2.40;1.50;;;;;;;;;;5016102;28;20683;-67
2022/09/01 11:37:32;;;;;;;2.70;1.63;;;;;;;;;;5016206;28;20254;-68
2022/09/01 11:39:59;;;;;;;2.03;1.77;;;;;;;;;;5014760;28;20179;-67
2022/09/01 11:42:27;;;;;;;2.63;1.43;;;;;;;;;;5014817;28;20180;-67
2022/09/01 11:44:59;;;;;;;3.47;1.80;;;;;;;;;;5014495;28;20266;-67
2022/09/01 11:47:28;;;;;;;5.17;1.70;;;;;;;;;;5014462;28;20644;-67
2022/09/01 11:50:08;;;;;;;3.33;1.57;;;;;;;;;;5014490;28;20267;-67
2022/09/01 11:52:36;;;;;;;3.73;1.83;;;;;;;;;;5014404;28;20195;-67
2022/09/01 11:55:03;;;;;;;2.63;1.97;;;;;;;;;;5015639;28;20676;-68
2022/09/01 11:57:32;;;;;;;3.10;1.57;;;;;;;;;;5015563;28;20251;-68
2022/09/01 11:59:58;;;;;;;2.80;1.93;;;;;;;;;;5014275;28;20655;-68
2022/09/01 12:02:26;;;;;;;4.23;1.93;;;;;;;;;;5015832;28;20230;-68
2022/09/01 12:04:54;;;;;;;1.67;1.57;;;;;;;;;;5015376;28;20195;-68
2022/09/01 12:07:43;;;;;;;3.47;2.07;;;;;;;;;;5015288;28;20172;-67
2022/09/01 12:10:27;;;;;;;4.97;2.17;;;;;;;;;;5009929;28;20234;-68
2022/09/01 12:13:00;;;;;;;4.27;1.80;;;;;;;;;;5015284;28;20179;-67
2022/09/01 12:15:26;;;;;;;5.10;1.90;;;;;;;;;;5013881;28;20254;-68
2022/09/01 12:17:53;;;;;;;3.87;1.77;;;;;;;;;;5013952;28;20567;-68
2022/09/01 12:20:20;;;;;;;5.30;1.93;;;;;;;;;;5015481;28;20180;-68
2022/09/01 12:22:46;;;;;;;2.77;1.90;;;;;;;;;;5014272;28;20524;-67
2022/09/01 12:25:21;;;;;;;2.30;1.77;;;;;;;;;;5014782;28;20292;-68
2022/09/01 12:27:47;;;;;;;2.60;1.80;;;;;;;;;;5014901;28;20207;-68
2022/09/01 12:30:13;;;;;;;2.57;1.70;;;;;;;;;;5014999;28;20625;-68
2022/09/01 12:32:39;;;;;;;3.00;1.67;;;;;;;;;;5015160;28;20183;-68
2022/09/01 12:35:14;;;;;;;4.97;1.83;;;;;;;;;;5014829;28;20280;-68
2022/09/01 12:37:40;;;;;;;3.87;1.90;;;;;;;;;;5014879;28;20175;-67
2022/09/01 12:40:20;;;;;;;2.10;1.90;;;;;;;;;;5015031;28;20176;-68
2022/09/01 12:42:50;;;;;;;3.30;2.30;;;;;;;;;;5014838;28;20172;-67
2022/09/01 12:45:35;;;;;;;2.07;1.77;;;;;;;;;;5014496;28;20723;-67
2022/09/01 12:48:01;;;;;;;4.40;1.80;;;;;;;;;;5015285;28;20218;-67
2022/09/01 12:50:27;;;;;;;8.87;2.30;;;;;;;;;;5015046;28;20660;-67
2022/09/01 12:53:00;;;;;;;5.23;2.40;;;;;;;;;;5014594;28;20610;-68
2022/09/01 12:55:31;;;;;;;3.23;1.73;;;;;;;;;;5014414;28;20207;-69
2022/09/01 12:58:01;;;;;;;5.83;2.33;;;;;;;;;;5038979;23;20231;-70
2022/09/01 13:00:29;;;;;;;3.80;2.03;;;;;;;;;;5015002;28;20184;-70
2022/09/01 13:03:16;;;;;;;2.67;1.80;;;;;;;;;;5014965;28;20182;-70
2022/09/01 13:05:50;;;;;;;6.87;2.03;;;;;;;;;;5014677;28;20164;-69
2022/09/01 13:08:21;;;;;;;3.20;2.10;;;;;;;;;;5014681;28;20258;-70
2022/09/01 13:10:52;;;;;;;5.17;2.47;;;;;;;;;;4997242;28;20658;-71
2022/09/01 13:13:18;;;;;;;3.13;1.80;;;;;;;;;;4997084;28;20182;-70
2022/09/01 13:15:49;;;;;;;2.33;1.80;;;;;;;;;;5014901;28;20206;-70
2022/09/01 13:18:15;;;;;;;4.97;2.17;;;;;;;;;;5014433;28;20211;-70
2022/09/01 13:20:41;;;;;;;5.57;2.40;;;;;;;;;;5014257;28;20222;-70
2022/09/01 13:23:08;;;;;;;2.23;1.87;;;;;;;;;;4996504;28;20180;-69
2022/09/01 13:25:34;;;;;;;2.03;1.83;;;;;;;;;;5014079;28;20185;-70
2022/09/01 13:28:01;;;;;;;2.07;1.87;;;;;;;;;;5014108;28;20596;-70
2022/09/01 13:30:28;;;;;;;3.90;2.10;;;;;;;;;;5014289;28;20567;-69
2022/09/01 13:32:54;;;;;;;2.33;1.97;;;;;;;;;;5014466;28;20660;-71
2022/09/01 13:35:21;;;;;;;2.10;1.90;;;;;;;;;;4996242;28;20575;-72
2022/09/01 13:37:48;;;;;;;3.80;1.80;;;;;;;;;;5014595;28;20690;-71
2022/09/01 13:40:15;;;;;;;4.00;1.70;;;;;;;;;;5014994;28;20552;-70
2022/09/01 13:42:52;;;;;;;3.47;1.70;;;;;;;;;;5014605;28;20180;-71
2022/09/01 13:45:19;;;;;;;3.37;1.90;;;;;;;;;;5014722;28;20191;-71
2022/09/01 13:47:46;;;;;;;3.87;1.97;;;;;;;;;;5013943;28;20239;-71
2022/09/01 13:50:13;;;;;;;8.47;2.10;;;;;;;;;;5013924;28;20187;-70
2022/09/01 13:52:40;;;;;;;2.30;2.10;;;;;;;;;;5013718;28;20180;-71
2022/09/01 13:55:07;;;;;;;4.13;1.90;;;;;;;;;;5013721;28;20234;-71
2022/09/01 13:57:34;;;;;;;2.43;1.80;;;;;;;;;;5013445;28;20215;-71
2022/09/01 14:00:00;;;;;;;4.27;1.80;;;;;;;;;;5013746;28;20168;-70
2022/09/01 14:02:26;;;;;;;3.47;2.03;;;;;;;;;;4996018;28;20188;-71
2022/09/01 14:04:52;;;;;;;2.50;1.80;;;;;;;;;;5013750;28;20190;-71
2022/09/01 14:07:18;;;;;;;2.60;1.90;;;;;;;;;;5013392;28;20274;-71
2022/09/01 14:09:44;;;;;;;1.70;1.60;;;;;;;;;;5013688;28;20664;-71
2022/09/01 14:12:11;;;;;;;5.87;1.80;;;;;;;;;;5013694;28;20552;-71
2022/09/01 14:14:37;;;;;;;2.60;2.30;;;;;;;;;;4996039;28;20608;-71
2022/09/01 14:17:03;;;;;;;4.97;2.07;;;;;;;;;;5013548;28;21475;-71
2022/09/01 14:19:30;;;;;;;3.33;2.00;;;;;;;;;;5013601;28;20230;-71
2022/09/01 14:21:56;;;;;;;7.10;2.23;;;;;;;;;;5013857;28;20254;-71
2022/09/01 14:24:22;;;;;;;5.50;2.13;;;;;;;;;;5013474;28;20176;-71
2022/09/01 14:26:49;;;;;;;3.00;2.23;;;;;;;;;;5013400;28;20241;-71
2022/09/01 14:29:15;;;;;;;2.30;2.10;;;;;;;;;;5013506;28;20630;-71
2022/09/01 14:31:42;;;;;;;5.03;1.80;;;;;;;;;;5013258;28;20258;-70
2022/09/01 14:34:10;;;;;;;3.87;1.90;;;;;;;;;;4995615;28;20176;-71
2022/09/01 14:36:37;;;;;;;2.63;2.13;;;;;;;;;;4995760;28;20569;-71
2022/09/01 14:39:04;;;;;;;8.17;2.30;;;;;;;;;;5013433;28;20218;-71
2022/09/01 14:41:30;;;;;;;4.53;1.97;;;;;;;;;;5013359;28;20589;-71
2022/09/01 14:44:01;;;;;;;4.37;2.33;;;;;;;;;;5013171;28;20210;-70
2022/09/01 14:46:29;;;;;;;2.23;1.60;;;;;;;;;;5014142;28;20591;-71
2022/09/01 14:48:55;;;;;;;4.67;1.90;;;;;;;;;;5017603;28;20292;-71
2022/09/01 14:51:25;;;;;;;3.80;2.50;;;;;;;;;;5017009;28;20711;-71
2022/09/01 14:53:52;;;;;;;5.20;1.90;;;;;;;;;;5000479;28;20171;-71
2022/09/01 14:56:18;;;;;;;1.77;1.67;;;;;;;;;;5017138;28;20682;-70